AGROMETEOROLOŠKI PORTAL
Vinorodna pokrajina

Temelj dobrega kmetovanja.

Izpis lokacij s podatki meritev in opazovanj za Zahodna Slovenija

Zahodna Slovenija
Lokacija Nadmorska višina Lega Višina meritve senzorja Datum in čas meritve Dosežena min. temperatura RH Veter (m/s) Temp. rosišča Temp. mokrega termometra
Bilje UVHVVR 55 m 2 m 19.4.2024 04:30 1,2 93,3 0,2 0,8
Bilje UVHVVR 55 m 50 cm 19.4.2024 04:30 0,2 93,3 -0,8 -0,2
Čelje 496 m V 2 m 19.4.2024 04:30 3,2 67,3 -2,3 1,0
Dragonja 34 m S 2 m 19.4.2024 04:00 1,6 94,4 0,8 1,3
Dutovlje 316 m J 2 m 19.4.2024 01:00 3,3 68,0 -2,0 1,2
Komen 269 m J 2 m 19.4.2024 04:30 5,0 69,6 -0,1 2,9
Kozana 182 m S 2 m 19.4.2024 04:30 4,7 76,8 2,4 1,0 3,1
Miren. 47 m S 2 m 19.4.2024 04:30 0,8 99,9 0,9 0,8 0,8
Potoče 75 m 2 m 19.4.2024 04:00 3,0 83,6 0,5 2,0
Pradisiol 3 m S 2 m 19.4.2024 04:30 -0,1 100,0 -0,1 -0,1
Puče 275 m J 2 m 19.4.2024 01:30 6,7 64,2 1,3 0,4 4,0
Purisima 50 m J 2 m 19.4.2024 04:30 5,5 60,0 -1,6 2,6
Slap 112 m 2 m 19.4.2024 04:30 4,5 67,9 2,5 -0,9 2,1
Sužid 231 m 2 m 19.4.2024 04:30 -0,1 99,9 -0,1 -0,1
Šlovrenc 92 m JZ 2 m 19.4.2024 04:30 0,4 100,0 0,4 0,4
Truške 230 m 2 m 19.4.2024 02:00 5,2 64,1 -1,0 2,7
Vipolže 59 m 2 m 19.4.2024 03:30 2,1 91,8 1,9 0,9 1,6
Višnjevik 223 m V 2 m 19.4.2024 04:30 5,0 69,6 -0,1 2,9
Vogrsko 62 m 2 m 19.4.2024 04:30 0,4 98,0 1,8 0,1 0,3
Zavrhek 340 m J 2 m 19.4.2024 04:30 -1,7 98,4 -1,9 -1,8
Ajdovščina 83 m 2 m 19.4.2024 04:00 3,3 88,0 2,2 1,5 2,5
BILJE ARSO 55 m 2 m 19.4.2024 04:30 1,2 96,0 1,4 0,6 1,0
BILJE ARSO 55 m 5 cm 19.4.2024 04:30 -0,6 96,0 1,4 -1,2 -0,8
Bovec - letališče ARSO 438 m 2 m 18.4.2024 23:30 4,0 79,0 3,3 0,7 2,6
GODNJE ARSO 315 m 2 m 19.4.2024 01:00 4,4 64,0 1,9 -1,8 2,0
Ilirska Bistrica - Koseze ARSO 415 m 2 m 19.4.2024 04:00 1,2 82,0 2,2 -1,5 0,1
KUBED ARSO 236 m 2 m 19.4.2024 04:30 0,2 93,0 -0,8 -0,2
PODNANOS - ARSO 153 m 2 m 19.4.2024 04:30 4,3 69,0 6,1 -0,9 2,1
Portorož-letališče ARSO 0 m 2 m 19.4.2024 04:00 4,2 79,0 3,9 0,9 2,8
POSTOJNA ARSO 534 m 2 m 19.4.2024 02:00 2,5 80,0 4,2 -0,6 1,2
ŠKOCJAN ARSO 420 m 2 m 19.4.2024 04:00 0,0 92,0 1,7 -1,1 -0,5
VEDRIJAN ARSO 228 m 2 m 19.4.2024 04:30 4,9 66,0 -0,9 2,5
ZADLOG - ARSO 716 m 2 m 19.4.2024 04:30 -2,0 95,0 -2,7 -2,2
Beneša - Ankaran (ZRSKP) 62 m 2 m 19.4.2024 02:30 5,8 69,0 1,4 0,6 3,6
Mala Seva - Izola (ZRSKP) 90 m 2 m 19.4.2024 04:30 6,1 64,9 4,0 0,0 3,5
Marezeige - Koper (ZRS) 189 m J 2 m 19.4.2024 04:30 2,7 81,5 0,9 -0,1 1,5
Semedela - Markovec (ZRSKP) 149 m 2 m 19.4.2024 04:30 5,9 64,2 3,7 -0,3 3,3
Kapelski vrh DRSI 285 m 2 m 19.4.2024 04:00 4,0 68,0 0,3 -1,4 1,8
Kobarid DRSI 242 m 2 m 19.4.2024 04:30 2,0 8,0 0,8 -28,7 -4,1
Koper DRSI 5 m 2 m 19.4.2024 00:30 7,0 87,0 0,0 5,0 6,0
Lazaret DRSI 2 m 2 m 19.4.2024 04:00 8,0 65,0 3,3 1,8 5,2
Valeta DRSI 100 m 2 m 19.4.2024 03:30 6,9 64,0 1,1 0,6 4,1
Cerovo 157 m 2 m 19.4.2024 04:30 6,2 63,8 -0,1 3,5
Hruševlje 105 m 2 m 19.4.2024 04:00 1,8 95,7 1,2 1,6
Plešivo 109 m 2 m 19.4.2024 04:00 1,5 99,7 0,5 1,5 1,5
Postaje, katerih podatke prikazujemo na portalu, so postaje proizvajalca Adcon Telemetry in Pessl (UVHVVR/MKGP), postaje ARSO in postaje DRSI.

IZJAVA O OMEJITVI ODGOVORNOSTI: Uprava Republike Slovenije za varno hrano, veterinarstvo in varstvo rastlin (Uprava) skupaj z Opazovalno napovedovalno službo zdravstvenega varstva rastlin skrbi za nemoteno delovanje in vzdrževanje meteoroloških podatkov iz mreže agrometeoroloških postaj (Adcon Telemety). Agrometeorološki podatki, ki so objavljeni na tej strani, so zgolj informativne narave. Za morebitne vsebinske napake, do katerih lahko pride zaradi tehničnih težav pri vzdrževanju mreže, napak merilne opreme ali drugih nepredvidljivih vzrokov, napak pri vnosu, posodabljanja vsebin, Uprava ne prevzema odgovornosti, kakor tudi ne zaradi nepravilnega delovanja in/ali nedostopnosti vsebine teh spletnih strani. Uprava tudi ne prevzema odgovornosti za kakršnokoli neposredno ali posredno izgubo oziroma škodo, materialno in nematerialno, ki bi nastala zaradi dostopa, uporabe ali odločitve, sprejete na podlagi informacij, objavljenih na teh spletnih straneh, kakor tudi ne zaradi nepravilnega delovanja in/ali nedostopnosti vsebine teh spletnih strani. Uprava si pridržuje pravico do spremembe oziroma umika vsebine, deloma ali v celoti, brez predhodne najave. Vsak poskus nepooblaščenega spreminjanja ali poškodovanja spletnih strani, kot tudi nepooblaščen dostop do informacij mimo spletnih strani in do drugih vsebin, je kaznivo dejanje. Pri uporabi vsebin, objavljenih na portalu, je potrebno navesti vir podatkov (UVHVVR, Agrometeorološki portal Slovenije) in upoštevati avtorske pravice.